Time;durP1;ratioP1;P1;durP2;ratioP2;P2;SDS_P1;SDS_P2;PMS_P1;PMS_P2;Temp;Humidity;BMP_temperature;BMP_pressure;BME280_temperature;BME280_humidity;BME280_pressure;Samples;Min_cycle;Max_cycle;Signal;HPM_P1;HPM_P2
2023/05/03 00:00:08;;;;;;;7.57;6.97;;;;;;;11.79;100.00;99877.25;6133871;23;20174;-86
2023/05/03 00:02:38;;;;;;;7.73;7.13;;;;;;;11.80;100.00;99870.03;6110118;23;20197;-85
2023/05/03 00:05:11;;;;;;;7.30;6.80;;;;;;;11.80;100.00;99873.50;6110281;23;20190;-86
2023/05/03 00:07:41;;;;;;;7.13;6.53;;;;;;;11.83;100.00;99870.41;6134946;23;20170;-86
2023/05/03 00:10:09;;;;;;;7.60;7.00;;;;;;;11.78;100.00;99869.41;6109262;23;20167;-86
2023/05/03 00:12:40;;;;;;;7.40;6.80;;;;;;;11.82;100.00;99867.94;6109850;23;20605;-87
2023/05/03 00:15:09;;;;;;;7.80;7.13;;;;;;;11.79;100.00;99871.06;6110087;23;20193;-85
2023/05/03 00:17:36;;;;;;;7.80;7.10;;;;;;;11.80;100.00;99870.03;6109332;23;20170;-86
2023/05/03 00:20:04;;;;;;;7.80;7.10;;;;;;;11.78;100.00;99874.78;6109982;23;20217;-86
2023/05/03 00:22:31;;;;;;;7.80;7.20;;;;;;;11.71;100.00;99874.81;6109879;23;20228;-85
2023/05/03 00:24:58;;;;;;;7.37;6.83;;;;;;;11.73;100.00;99874.63;6158475;23;20194;-86
2023/05/03 00:27:25;;;;;;;8.00;7.40;;;;;;;11.74;100.00;99871.72;6133641;23;20170;-87
2023/05/03 00:29:52;;;;;;;7.83;7.23;;;;;;;11.73;100.00;99870.09;6134045;23;20261;-84
2023/05/03 00:32:21;;;;;;;7.87;7.27;;;;;;;11.75;100.00;99872.56;6133662;23;20621;-86
2023/05/03 00:34:55;;;;;;;7.97;7.37;;;;;;;11.66;100.00;99869.31;6109986;23;20171;-85
2023/05/03 00:37:23;;;;;;;7.57;6.87;;;;;;;11.69;100.00;99873.41;6133747;23;20756;-85
2023/05/03 00:39:50;;;;;;;8.20;7.57;;;;;;;11.71;100.00;99874.81;6109407;23;20258;-85
2023/05/03 00:42:19;;;;;;;9.00;8.30;;;;;;;11.67;100.00;99870.09;6109194;23;20225;-87
2023/05/03 00:44:46;;;;;;;8.20;7.47;;;;;;;11.73;100.00;99869.25;6133850;23;20217;-85
2023/05/03 00:47:15;;;;;;;9.07;8.37;;;;;;;11.63;100.00;99876.97;6133236;23;20253;-86
2023/05/03 00:49:42;;;;;;;9.23;8.43;;;;;;;11.68;100.00;99867.22;6109059;23;20178;-85
2023/05/03 00:52:09;;;;;;;9.50;8.80;;;;;;;11.65;100.00;99866.84;6133628;23;20174;-85
2023/05/03 00:54:36;;;;;;;10.17;9.27;;;;;;;11.69;100.00;99876.91;6134311;23;20213;-86
2023/05/03 00:57:03;;;;;;;10.80;9.80;;;;;;;11.71;100.00;99871.34;6159590;23;20220;-86
2023/05/03 00:59:31;;;;;;;10.50;9.70;;;;;;;11.71;100.00;99872.13;6135239;23;20178;-85
2023/05/03 01:01:58;;;;;;;10.63;9.73;;;;;;;11.71;100.00;99880.19;6135526;23;20175;-87
2023/05/03 01:04:29;;;;;;;10.30;9.40;;;;;;;11.70;100.00;99875.88;6110969;23;20217;-86
2023/05/03 01:07:05;;;;;;;10.83;9.90;;;;;;;11.67;100.00;99870.09;6111992;23;20201;-87
2023/05/03 01:09:38;;;;;;;11.30;10.40;;;;;;;11.64;100.00;99866.00;6135649;23;20170;-85
2023/05/03 01:12:12;;;;;;;10.33;9.43;;;;;;;11.64;100.00;99868.69;6135101;23;20221;-86
2023/05/03 01:15:11;;;;;;;10.87;9.87;;;;;;;11.71;100.00;99865.97;6135294;23;20731;-86
2023/05/03 01:17:41;;;;;;;10.20;9.30;;;;;;;11.66;100.00;99873.84;6134942;23;20177;-85
2023/05/03 01:20:11;;;;;;;10.67;9.77;;;;;;;11.60;100.00;99872.88;6135265;23;20170;-85
2023/05/03 01:22:44;;;;;;;10.57;9.67;;;;;;;11.57;100.00;99875.19;6135214;23;20193;-86
2023/05/03 01:25:13;;;;;;;11.07;10.07;;;;;;;11.62;100.00;99864.59;6129297;23;20277;-85
2023/05/03 01:27:41;;;;;;;11.00;10.10;;;;;;;11.66;100.00;99863.13;6159372;23;20197;-86
2023/05/03 01:30:10;;;;;;;11.47;10.57;;;;;;;11.55;100.00;99863.81;6159692;23;20644;-87
2023/05/03 01:33:24;;;;;;;10.67;9.77;;;;;;;11.59;100.00;99865.03;6159325;23;20170;-85
2023/05/03 01:35:55;;;;;;;10.87;9.97;;;;;;;11.54;100.00;99862.19;6165398;23;20173;-86
2023/05/03 01:38:22;;;;;;;16.40;14.70;;;;;;;11.51;100.00;99857.25;6135471;23;20205;-86
2023/05/03 01:40:52;;;;;;;16.47;14.57;;;;;;;11.48;100.00;99859.34;6159602;23;20166;-86
2023/05/03 01:43:20;;;;;;;11.97;10.87;;;;;;;11.43;100.00;99855.69;6159209;23;20166;-85
2023/05/03 01:45:46;;;;;;;10.83;9.93;;;;;;;11.46;100.00;99856.06;6159396;23;20647;-85
2023/05/03 01:48:18;;;;;;;10.03;9.13;;;;;;;11.44;100.00;99860.00;6184136;23;20249;-85
2023/05/03 01:50:44;;;;;;;10.57;9.47;;;;;;;11.40;100.00;99862.28;6135172;23;20244;-86
2023/05/03 01:53:11;;;;;;;10.53;9.63;;;;;;;11.52;100.00;99867.78;6135125;23;20166;-86
2023/05/03 01:55:38;;;;;;;10.67;9.77;;;;;;;11.51;100.00;99860.78;6159400;23;20277;-86
2023/05/03 01:58:05;;;;;;;10.50;9.63;;;;;;;11.48;100.00;99862.00;6135000;23;20166;-86
2023/05/03 02:00:32;;;;;;;9.77;8.97;;;;;;;11.38;100.00;99858.22;6159656;23;20170;-86
2023/05/03 02:02:59;;;;;;;10.07;9.27;;;;;;;11.41;100.00;99858.59;6134941;23;20174;-85
2023/05/03 02:05:25;;;;;;;9.87;9.07;;;;;;;11.36;100.00;99862.97;6159308;23;20192;-86
2023/05/03 02:07:52;;;;;;;9.60;8.80;;;;;;;11.44;100.00;99863.50;6159408;23;20233;-86
2023/05/03 02:10:21;;;;;;;9.60;8.80;;;;;;;11.39;100.00;99860.66;6159746;23;20162;-85
2023/05/03 02:12:48;;;;;;;9.33;8.50;;;;;;;11.37;100.00;99859.25;6134751;23;20198;-86
2023/05/03 02:15:15;;;;;;;8.87;8.17;;;;;;;11.37;100.00;99859.25;6159464;23;20174;-85
2023/05/03 02:17:42;;;;;;;9.07;8.37;;;;;;;11.36;100.00;99858.41;6135023;23;20221;-85
2023/05/03 02:20:09;;;;;;;9.10;8.40;;;;;;;11.41;100.00;99858.59;6134807;23;20193;-86
2023/05/03 02:22:36;;;;;;;8.40;7.80;;;;;;;11.45;100.00;99864.31;6159427;23;20162;-85
2023/05/03 02:25:03;;;;;;;8.40;7.70;;;;;;;11.39;100.00;99855.28;6164320;23;20837;-86
2023/05/03 02:27:30;;;;;;;8.80;8.10;;;;;;;11.54;100.00;99857.63;6164532;23;20166;-87
2023/05/03 02:29:57;;;;;;;8.47;7.77;;;;;;;11.49;100.00;99862.84;6163849;23;20608;-86
2023/05/03 02:32:24;;;;;;;8.97;8.17;;;;;;;11.48;100.00;99858.50;6139483;23;20668;-86
2023/05/03 02:34:51;;;;;;;8.60;7.80;;;;;;;11.60;100.00;99859.44;6164277;23;20170;-86
2023/05/03 02:37:20;;;;;;;9.47;8.57;;;;;;;11.63;100.00;99866.22;6140471;23;20575;-86
2023/05/03 02:39:47;;;;;;;9.43;8.63;;;;;;;11.68;100.00;99869.06;6139635;23;20174;-87
2023/05/03 02:42:15;;;;;;;8.77;8.07;;;;;;;11.77;100.00;99862.41;6140003;23;20170;-85
2023/05/03 02:44:45;;;;;;;8.87;7.97;;;;;;;11.73;100.00;99864.72;6140010;23;20169;-86
2023/05/03 02:47:12;;;;;;;9.13;8.33;;;;;;;11.68;100.00;99867.22;6140016;23;20170;-86
2023/05/03 02:49:40;;;;;;;8.60;7.97;;;;;;;11.67;100.00;99862.88;6164430;23;20180;-86
2023/05/03 02:52:08;;;;;;;8.93;8.13;;;;;;;11.77;100.00;99862.41;6164632;23;20176;-86
2023/05/03 02:54:35;;;;;;;8.77;8.07;;;;;;;11.70;100.00;99859.78;6189257;23;20232;-85
2023/05/03 02:57:07;;;;;;;9.03;8.27;;;;;;;11.70;100.00;99865.13;6164931;23;20181;-85
2023/05/03 02:59:34;;;;;;;9.03;8.10;;;;;;;11.69;100.00;99862.66;6139404;23;20165;-86
2023/05/03 03:02:01;;;;;;;9.27;8.57;;;;;;;11.65;100.00;99859.63;6164480;23;20162;-83
2023/05/03 03:04:30;;;;;;;8.73;8.03;;;;;;;11.67;100.00;99867.41;6164061;23;20219;-86
2023/05/03 03:06:57;;;;;;;8.93;8.17;;;;;;;11.58;100.00;99871.44;6139587;23;20272;-86
2023/05/03 03:09:24;;;;;;;9.37;8.57;;;;;;;11.64;100.00;99865.19;6139570;23;20180;-86
2023/05/03 03:11:51;;;;;;;9.37;8.37;;;;;;;11.59;100.00;99868.53;6163886;23;20169;-85
2023/05/03 03:14:19;;;;;;;9.10;8.30;;;;;;;11.73;100.00;99861.22;6163668;23;20193;-86
2023/05/03 03:16:45;;;;;;;9.27;8.40;;;;;;;11.80;100.00;99867.34;6164442;23;20639;-86
2023/05/03 03:19:12;;;;;;;8.90;8.20;;;;;;;11.73;100.00;99863.91;6163183;23;20173;-86
2023/05/03 03:21:40;;;;;;;8.47;7.87;;;;;;;11.70;100.00;99872.38;6139635;23;20191;-85
2023/05/03 03:24:07;;;;;;;9.43;8.63;;;;;;;11.73;100.00;99867.41;6153160;23;20201;-85
2023/05/03 03:26:34;;;;;;;8.90;8.20;;;;;;;11.72;100.00;99863.06;6134010;23;20190;-84
2023/05/03 03:29:01;;;;;;;9.53;8.73;;;;;;;11.67;100.00;99876.28;6133702;23;20169;-86
2023/05/03 03:31:28;;;;;;;9.23;8.53;;;;;;;11.68;100.00;99872.56;6109922;23;20174;-86
2023/05/03 03:33:55;;;;;;;9.97;9.07;;;;;;;11.79;100.00;99879.13;6109332;23;20170;-84
2023/05/03 03:36:27;;;;;;;9.70;8.87;;;;;;;11.80;100.00;99884.25;6134835;23;20173;-85
2023/05/03 03:38:53;;;;;;;9.63;8.73;;;;;;;11.77;100.00;99882.03;6134236;23;20178;-86
2023/05/03 03:41:21;;;;;;;9.20;8.33;;;;;;;11.89;100.00;99874.06;6134000;23;20221;-87
2023/05/03 03:43:49;;;;;;;9.30;8.50;;;;;;;11.79;100.00;99881.81;6133374;23;20232;-87
2023/05/03 03:46:18;;;;;;;8.93;8.03;;;;;;;11.76;100.00;99879.53;6134197;23;20248;-87
2023/05/03 03:48:48;;;;;;;8.73;7.87;;;;;;;11.72;100.00;99881.84;6158082;23;20620;-87
2023/05/03 03:51:15;;;;;;;8.53;7.70;;;;;;;11.96;100.00;99887.41;6158662;23;20248;-86
2023/05/03 03:53:45;;;;;;;8.70;7.90;;;;;;;11.87;100.00;99882.34;6134323;23;20166;-86
2023/05/03 03:56:12;;;;;;;8.23;7.47;;;;;;;11.89;100.00;99888.31;6134220;23;20193;-85
2023/05/03 03:58:40;;;;;;;7.73;7.07;;;;;;;11.93;100.00;99885.19;6110172;23;20236;-86
2023/05/03 04:01:08;;;;;;;7.63;7.03;;;;;;;11.99;100.00;99892.34;6134217;23;20277;-84
2023/05/03 04:03:35;;;;;;;8.00;7.30;;;;;;;12.02;100.00;99890.03;6109629;23;20174;-87
2023/05/03 04:06:02;;;;;;;7.40;6.70;;;;;;;12.06;100.00;99896.59;6158659;23;20194;-85
2023/05/03 04:08:29;;;;;;;8.47;7.67;;;;;;;12.23;100.00;99900.34;6109629;23;20174;-86
2023/05/03 04:10:57;;;;;;;7.83;7.03;;;;;;;12.31;100.00;99900.06;6109913;23;20636;-86
2023/05/03 04:13:24;;;;;;;8.00;7.30;;;;;;;12.28;100.00;99895.13;6133377;23;20205;-86
2023/05/03 04:15:55;;;;;;;7.63;6.87;;;;;;;12.44;100.00;99898.25;6134294;23;20197;-87
2023/05/03 04:18:22;;;;;;;7.37;6.77;;;;;;;12.48;100.00;99913.69;6109929;23;20174;-86
2023/05/03 04:20:50;;;;;;;8.33;7.00;;;;;;;12.61;100.00;99904.66;6134581;23;20177;-87
2023/05/03 04:23:17;;;;;;;8.13;7.43;;;;;;;12.64;100.00;99907.72;6133654;23;20249;-86
2023/05/03 04:25:47;;;;;;;8.00;7.30;;;;;;;12.59;100.00;99914.81;6110178;23;20245;-85
2023/05/03 04:28:17;;;;;;;8.63;7.83;;;;;;;12.60;100.00;99924.50;6134485;23;20265;-86
2023/05/03 04:30:47;;;;;;;8.10;7.40;;;;;;;12.62;100.00;99914.34;6113150;23;20213;-87
2023/05/03 04:33:19;;;;;;;8.30;7.50;;;;;;;12.74;100.00;99920.59;6137174;23;20162;-87
2023/05/03 04:35:50;;;;;;;8.70;7.80;;;;;;;12.79;100.00;99918.88;6111661;23;20170;-87
2023/05/03 04:38:18;;;;;;;8.90;8.00;;;;;;;12.81;100.00;99921.34;6111882;23;20178;-85
2023/05/03 04:40:45;;;;;;;9.30;8.50;;;;;;;12.90;100.00;99921.84;6111830;23;20198;-86
2023/05/03 04:43:12;;;;;;;9.57;8.67;;;;;;;12.94;100.00;99925.72;6135391;23;20189;-87
2023/05/03 04:45:43;;;;;;;9.27;8.47;;;;;;;13.07;100.00;99933.59;6112761;23;20187;-86
2023/05/03 04:48:16;;;;;;;9.60;8.70;;;;;;;13.18;100.00;99940.94;6136571;23;20197;-87
2023/05/03 04:50:44;;;;;;;10.37;9.47;;;;;;;13.22;100.00;99934.88;6111742;23;20251;-87
2023/05/03 04:53:12;;;;;;;10.53;9.73;;;;;;;13.26;100.00;99937.91;6112281;23;20193;-86
2023/05/03 04:55:41;;;;;;;10.70;9.80;;;;;;;13.24;100.00;99937.34;6112229;23;20192;-85
2023/05/03 04:58:09;;;;;;;11.40;10.50;;;;;;;13.14;100.00;99951.34;6135848;23;20201;-85
2023/05/03 05:00:37;;;;;;;11.57;10.50;;;;;;;13.14;100.00;99953.22;6136503;23;20170;-85
2023/05/03 05:03:10;;;;;;;12.00;10.90;;;;;;;12.96;100.00;99958.59;6159647;23;20176;-85
2023/05/03 05:05:37;;;;;;;11.63;10.63;;;;;;;13.08;100.00;99949.53;6135371;23;20194;-85
2023/05/03 05:08:06;;;;;;;12.10;11.10;;;;;;;13.13;100.00;99959.63;6135707;23;20170;-85
2023/05/03 05:10:42;;;;;;;12.47;11.37;;;;;;;12.97;100.00;99957.56;6114032;23;20177;-86
2023/05/03 05:13:14;;;;;;;13.00;11.80;;;;;;;13.10;100.00;99955.50;6135849;23;20169;-86
2023/05/03 05:15:41;;;;;;;12.00;10.90;;;;;;;13.09;100.00;99964.63;6111239;23;20191;-85
2023/05/03 05:18:10;;;;;;;12.23;11.03;;;;;;;13.15;100.00;99969.13;6134184;23;20697;-86
2023/05/03 05:20:38;;;;;;;12.07;11.07;;;;;;;13.32;100.00;99969.31;6133557;23;20253;-85
2023/05/03 05:23:05;;;;;;;11.57;10.57;;;;;;;13.47;100.00;99961.63;6135231;23;20174;-86
2023/05/03 05:25:32;;;;;;;11.70;10.60;;;;;;;13.60;100.00;99968.69;6157882;23;20206;-86
2023/05/03 05:28:00;;;;;;;11.27;10.33;;;;;;;13.86;100.00;99965.53;6136112;23;20516;-87
2023/05/03 05:30:28;;;;;;;11.87;10.77;;;;;;;13.84;100.00;99964.97;6135563;23;20174;-84
2023/05/03 05:32:58;;;;;;;11.03;9.87;;;;;;;14.13;100.00;99967.81;6160320;23;20198;-85
2023/05/03 05:35:25;;;;;;;10.87;9.97;;;;;;;14.35;100.00;99972.38;6159175;23;20194;-85
2023/05/03 05:37:51;;;;;;;14.97;13.57;;;;;;;14.56;100.00;99978.25;6135263;23;20180;-85
2023/05/03 05:40:18;;;;;;;13.23;12.13;;;;;;;14.59;100.00;99988.53;6183784;23;20230;-85
2023/05/03 05:42:50;;;;;;;12.20;11.10;;;;;;;14.81;100.00;99984.97;6136911;23;20175;-85
2023/05/03 05:45:18;;;;;;;11.53;10.47;;;;;;;14.85;100.00;99996.09;6159051;23;20692;-84
2023/05/03 05:47:45;;;;;;;11.70;10.57;;;;;;;14.78;100.00;99995.44;6133581;23;20695;-86
2023/05/03 05:50:12;;;;;;;12.50;11.40;;;;;;;14.84;100.00;99987.19;6183761;23;20682;-85
2023/05/03 05:52:51;;;;;;;10.57;9.57;;;;;;;14.93;100.00;99984.97;6184022;23;20255;-85
2023/05/03 05:55:19;;;;;;;11.60;10.57;;;;;;;14.87;100.00;99997.50;6159180;23;20196;-85
2023/05/03 05:57:48;;;;;;;10.87;9.97;;;;;;;14.73;100.00;100001.53;6160289;23;20192;-85
2023/05/03 06:00:20;;;;;;;10.97;10.00;;;;;;;14.35;100.00;99999.31;6159820;23;20167;-85
2023/05/03 06:02:47;;;;;;;10.80;9.80;;;;;;;14.48;100.00;100006.38;6159956;23;20175;-84
2023/05/03 06:05:17;;;;;;;12.03;11.03;;;;;;;14.24;100.00;100004.69;6159673;23;20208;-85
2023/05/03 06:07:44;;;;;;;10.93;9.97;;;;;;;14.39;100.00;100002.38;6158977;23;20296;-85
2023/05/03 06:10:11;;;;;;;12.27;11.17;;;;;;;14.42;100.00;100007.28;6134688;23;20227;-85
2023/05/03 06:12:42;;;;;;;15.37;13.77;;;;;;;14.10;100.00;100004.94;6160186;23;20190;-85
2023/05/03 06:15:13;;;;;;;12.90;11.33;;;;;;;14.20;100.00;100008.91;6136788;23;20239;-84
2023/05/03 06:17:41;;;;;;;12.00;10.90;;;;;;;14.24;100.00;100013.59;6134943;23;20177;-84
2023/05/03 06:20:10;;;;;;;12.10;10.63;;;;;;;14.13;100.00;100017.13;6158705;23;20171;-85
2023/05/03 06:22:39;;;;;;;13.13;11.93;;;;;;;14.03;100.00;100014.19;6159734;23;20172;-86
2023/05/03 06:25:07;;;;;;;11.77;10.77;;;;;;;14.28;100.00;100019.34;6141559;23;20231;-85
2023/05/03 06:27:35;;;;;;;11.20;10.10;;;;;;;14.34;100.00;100026.50;6110248;23;20196;-85
2023/05/03 06:30:02;;;;;;;11.73;10.70;;;;;;;14.50;100.00;100018.56;6134733;23;20184;-85
2023/05/03 06:32:30;;;;;;;14.87;13.43;;;;;;;14.38;100.00;100030.38;6134682;23;20633;-85
2023/05/03 06:34:58;;;;;;;15.57;13.97;;;;;;;14.08;100.00;100025.91;6134302;23;20172;-84
2023/05/03 06:37:25;;;;;;;17.40;15.67;;;;;;;13.99;100.00;100032.69;6134400;23;20180;-85
2023/05/03 06:39:52;;;;;;;16.23;14.43;;;;;;;14.31;100.00;100035.06;6134645;23;20176;-85
2023/05/03 06:42:18;;;;;;;25.43;22.73;;;;;;;14.11;100.00;100033.53;6109758;23;20258;-86
2023/05/03 06:44:47;;;;;;;19.13;17.17;;;;;;;14.15;100.00;100024.97;6110080;23;20243;-86
2023/05/03 06:47:13;;;;;;;23.73;21.30;;;;;;;14.48;100.00;100027.94;6134421;23;20190;-85
2023/05/03 06:49:40;;;;;;;22.60;20.30;;;;;;;14.66;100.00;100030.50;6134132;23;20570;-85
2023/05/03 06:52:07;;;;;;;14.50;13.10;;;;;;;14.57;100.00;100031.91;6133652;23;20519;-85
2023/05/03 06:54:37;;;;;;;20.70;18.80;;;;;;;14.69;100.00;100035.44;6134591;23;20227;-85
2023/05/03 06:57:04;;;;;;;15.27;13.83;;;;;;;14.75;100.00;100033.66;6134278;23;20188;-85
2023/05/03 06:59:30;;;;;;;15.20;13.77;;;;;;;14.79;100.00;100038.31;6158496;23;20172;-84
2023/05/03 07:01:57;;;;;;;16.40;15.00;;;;;;;14.81;100.00;100033.53;6134088;23;20225;-85
2023/05/03 07:04:24;;;;;;;15.00;13.67;;;;;;;15.03;100.00;100032.88;6134169;23;20224;-86
2023/05/03 07:06:51;;;;;;;13.17;11.97;;;;;;;15.07;100.00;100034.06;6109802;23;20241;-85
2023/05/03 07:09:22;;;;;;;16.97;15.57;;;;;;;15.19;100.00;100034.84;6134908;23;20169;-84
2023/05/03 07:12:07;;;;;;;12.77;11.67;;;;;;;15.24;100.00;100030.38;6141405;23;20596;-85
2023/05/03 07:14:34;;;;;;;12.97;11.77;;;;;;;14.99;100.00;100036.06;6109794;23;20700;-85
2023/05/03 07:17:01;;;;;;;13.20;12.10;;;;;;;15.34;100.00;100035.16;6158454;23;20260;-85
2023/05/03 07:19:28;;;;;;;17.10;15.50;;;;;;;15.43;100.00;100041.81;6133833;23;20170;-85
2023/05/03 07:21:55;;;;;;;14.10;12.80;;;;;;;15.71;100.00;100027.50;6133642;23;20228;-84
2023/05/03 07:24:24;;;;;;;14.33;13.03;;;;;;;15.40;100.00;100034.97;6157845;23;20691;-85
2023/05/03 07:26:52;;;;;;;12.20;11.10;;;;;;;15.32;100.00;100038.06;6158908;23;20220;-84
2023/05/03 07:29:19;;;;;;;11.53;10.43;;;;;;;15.25;100.00;100040.13;6109444;23;20170;-85
2023/05/03 07:31:46;;;;;;;13.67;12.47;;;;;;;14.75;100.00;100045.25;6158283;23;20171;-85
2023/05/03 07:34:13;;;;;;;13.20;12.00;;;;;;;14.99;100.00;100033.38;6133504;23;20177;-85
2023/05/03 07:36:39;;;;;;;11.73;10.73;;;;;;;14.96;100.00;100044.66;6133708;23;20235;-86
2023/05/03 07:39:07;;;;;;;10.80;9.90;;;;;;;15.00;100.00;100047.69;6109460;23;20688;-85
2023/05/03 07:41:34;;;;;;;10.77;9.87;;;;;;;15.14;100.00;100049.06;6133486;23;20162;-84
2023/05/03 07:44:01;;;;;;;10.97;9.97;;;;;;;15.02;100.00;100044.75;6108897;23;20166;-83
2023/05/03 07:46:27;;;;;;;10.83;9.87;;;;;;;15.01;100.00;100048.50;6133480;23;20189;-84
2023/05/03 07:48:54;;;;;;;11.07;9.97;;;;;;;14.75;100.00;100042.56;6133332;23;20264;-85
2023/05/03 07:51:21;;;;;;;10.73;9.73;;;;;;;15.13;100.00;100044.72;6109273;23;20179;-85
2023/05/03 07:53:48;;;;;;;11.13;10.13;;;;;;;15.72;100.00;100046.13;6109013;23;20187;-84
2023/05/03 07:56:15;;;;;;;11.63;10.53;;;;;;;15.45;100.00;100045.06;6157070;23;20272;-84
2023/05/03 07:58:41;;;;;;;10.87;9.97;;;;;;;15.66;100.00;100040.91;6132892;23;20252;-84
2023/05/03 08:01:12;;;;;;;11.77;10.47;;;;;;;15.87;100.00;100048.28;6133869;23;20170;-84
2023/05/03 08:03:39;;;;;;;11.50;10.47;;;;;;;15.69;100.00;100051.22;6109997;23;20177;-83
2023/05/03 08:06:06;;;;;;;10.90;9.90;;;;;;;15.80;100.00;100047.63;6109768;23;20173;-84
2023/05/03 08:08:34;;;;;;;10.83;9.93;;;;;;;15.26;100.00;100055.22;6160294;23;20847;-85
2023/05/03 08:11:01;;;;;;;10.83;9.83;;;;;;;15.37;100.00;100048.16;6136099;23;20182;-84
2023/05/03 08:13:28;;;;;;;11.53;10.33;;;;;;;14.96;100.00;100051.91;6111879;23;20173;-85
2023/05/03 08:15:54;;;;;;;11.20;10.20;;;;;;;15.73;100.00;100055.06;6135748;23;20174;-84
2023/05/03 08:18:21;;;;;;;11.40;10.40;;;;;;;16.03;100.00;100044.78;6136396;23;20162;-84
2023/05/03 08:20:49;;;;;;;11.33;10.33;;;;;;;16.13;100.00;100050.38;6158991;23;20277;-85
2023/05/03 08:24:07;;;;;;;10.67;9.77;;;;;;;16.24;100.00;100056.75;6157270;23;20416;-83
2023/05/03 08:26:34;;;;;;;10.90;10.00;;;;;;;16.29;100.00;100056.81;6135365;23;20277;-84
2023/05/03 08:29:02;;;;;;;10.57;9.67;;;;;;;16.27;100.00;100056.28;6111785;23;20253;-84
2023/05/03 08:31:30;;;;;;;10.33;9.43;;;;;;;15.95;100.00;100049.78;6136023;23;20181;-84
2023/05/03 08:33:56;;;;;;;11.43;10.50;;;;;;;16.09;100.00;100061.94;6136463;23;20165;-84
2023/05/03 08:36:23;;;;;;;11.13;10.13;;;;;;;16.27;100.00;100058.97;6186679;23;20209;-84
2023/05/03 08:38:50;;;;;;;11.93;10.93;;;;;;;16.54;100.00;100062.63;6160484;23;20181;-84
2023/05/03 08:41:22;;;;;;;10.37;9.57;;;;;;;16.79;100.00;100061.41;6136172;23;20174;-84
2023/05/03 08:43:53;;;;;;;10.47;9.57;;;;;;;16.36;100.00;100068.31;6110873;23;20217;-83
2023/05/03 08:46:20;;;;;;;10.67;9.70;;;;;;;16.67;100.00;100065.03;6111248;23;20171;-84
2023/05/03 08:48:48;;;;;;;10.73;9.73;;;;;;;17.40;100.00;100069.22;6135611;23;20163;-83
2023/05/03 08:51:16;;;;;;;11.13;9.83;;;;;;;17.46;100.00;100067.38;6160321;23;20250;-83
2023/05/03 08:53:43;;;;;;;10.37;9.43;;;;;;;17.72;100.00;100058.50;6135559;23;20173;-83
2023/05/03 08:56:11;;;;;;;11.27;10.27;;;;;;;17.16;100.00;100068.69;6111318;23;20191;-83
2023/05/03 08:58:38;;;;;;;11.07;10.17;;;;;;;17.04;100.00;100062.53;6135717;23;20206;-84
2023/05/03 09:01:05;;;;;;;10.47;9.57;;;;;;;17.71;100.00;100064.97;6135616;23;20185;-83
2023/05/03 09:03:33;;;;;;;10.80;9.83;;;;;;;17.84;100.00;100064.56;6111219;23;20177;-83
2023/05/03 09:06:01;;;;;;;10.97;9.87;;;;;;;17.95;100.00;100062.78;6135589;23;20178;-83
2023/05/03 09:08:41;;;;;;;10.43;9.53;;;;;;;18.10;100.00;100060.22;6159812;23;20552;-83
2023/05/03 09:11:29;;;;;;;11.43;10.43;;;;;;;18.61;100.00;100071.47;6135776;23;20167;-83
2023/05/03 09:14:13;;;;;;;11.17;10.17;;;;;;;18.38;100.00;100050.94;6135669;23;20193;-83
2023/05/03 09:16:43;;;;;;;11.20;10.30;;;;;;;17.82;100.00;100057.78;6133733;23;20171;-83
2023/05/03 09:19:11;;;;;;;11.00;10.10;;;;;;;18.35;100.00;100052.25;6134604;23;20167;-83
2023/05/03 09:21:39;;;;;;;11.43;10.33;;;;;;;18.36;100.00;100056.59;6109689;23;20170;-83
2023/05/03 09:24:15;;;;;;;10.33;9.43;;;;;;;17.57;100.00;100059.13;6138936;23;20208;-83
2023/05/03 09:26:42;;;;;;;10.87;9.93;;;;;;;17.30;100.00;100049.34;6184189;23;20188;-84
2023/05/03 09:29:09;;;;;;;10.70;9.70;;;;;;;17.80;100.00;100033.63;6184517;23;20170;-83
2023/05/03 09:31:36;;;;;;;11.13;10.17;;;;;;;17.82;100.00;100042.34;6158176;23;20213;-83
2023/05/03 09:34:21;;;;;;;9.70;8.90;;;;;;;18.82;100.00;100038.75;6182906;23;20167;-83
2023/05/03 09:36:47;;;;;;;9.67;8.87;;;;;;;18.19;100.00;100031.53;6158524;23;20177;-83
2023/05/03 09:39:18;;;;;;;9.17;8.37;;;;;;;18.36;100.00;100024.06;6182883;23;20205;-83
2023/05/03 09:41:46;;;;;;;9.70;8.80;;;;;;;18.60;100.00;100029.13;6184370;23;20213;-84
2023/05/03 09:44:12;;;;;;;9.83;9.03;;;;;;;18.65;100.00;100031.88;6157969;23;20190;-83
2023/05/03 09:46:39;;;;;;;9.60;8.70;;;;;;;19.08;100.00;100028.03;6158469;23;20233;-83
2023/05/03 09:49:06;;;;;;;9.70;8.80;;;;;;;19.03;100.00;100020.66;6157864;23;20198;-83
2023/05/03 09:51:33;;;;;;;9.57;8.77;;;;;;;18.83;99.95;100017.84;6182883;23;20572;-83
2023/05/03 09:53:59;;;;;;;9.87;9.00;;;;;;;19.18;99.58;100011.72;6158209;23;20257;-83
2023/05/03 09:56:29;;;;;;;10.40;9.40;;;;;;;19.17;97.93;100021.81;6183007;23;20162;-83
2023/05/03 09:58:57;;;;;;;11.70;10.60;;;;;;;18.43;100.00;100021.09;6182980;23;20166;-83
2023/05/03 10:01:24;;;;;;;10.23;9.33;;;;;;;18.45;100.00;100005.41;6184255;23;20189;-84
2023/05/03 10:03:53;;;;;;;10.00;9.10;;;;;;;18.78;100.00;100005.06;6184285;23;20167;-83
2023/05/03 10:06:23;;;;;;;9.33;8.53;;;;;;;19.12;99.22;99999.25;6133872;23;20171;-83
2023/05/03 10:09:13;;;;;;;8.43;7.73;;;;;;;18.46;94.19;99999.72;6184380;23;20170;-83
2023/05/03 10:11:42;;;;;;;10.13;9.20;;;;;;;19.02;94.74;100000.03;6184359;23;20187;-83
2023/05/03 10:14:09;;;;;;;10.63;9.80;;;;;;;18.54;96.80;100000.31;6158026;23;20165;-83
2023/05/03 10:16:37;;;;;;;9.90;9.00;;;;;;;18.73;97.07;99994.19;6182456;23;20194;-84
2023/05/03 10:19:07;;;;;;;9.50;8.40;;;;;;;19.04;92.78;99999.72;6182480;23;20178;-84
2023/05/03 10:22:09;;;;;;;8.90;8.10;;;;;;;18.60;92.55;99991.13;6182852;23;20165;-83
2023/05/03 10:25:00;;;;;;;8.63;7.93;;;;;;;18.51;93.17;99998.94;6182570;23;20190;-84
2023/05/03 10:27:51;;;;;;;8.57;7.77;;;;;;;18.50;94.23;99997.28;6168065;23;20244;-83
2023/05/03 10:30:32;;;;;;;7.90;7.20;;;;;;;19.03;92.61;99992.69;6158341;23;20163;-83
2023/05/03 10:33:19;;;;;;;8.10;7.40;;;;;;;19.40;92.83;99998.78;6182868;23;20173;-83
2023/05/03 10:35:53;;;;;;;8.03;7.33;;;;;;;18.93;86.19;99982.63;6164022;23;20178;-84
2023/05/03 10:38:24;;;;;;;8.20;6.73;;;;;;;18.15;89.70;99992.44;6182882;23;20150;-84
2023/05/03 10:40:53;;;;;;;7.17;6.50;;;;;;;17.97;88.66;99990.94;6158301;23;20177;-85
2023/05/03 10:43:29;;;;;;;7.00;6.40;;;;;;;17.91;91.11;99996.59;6182714;23;20625;-84
2023/05/03 10:45:57;;;;;;;8.37;7.67;;;;;;;18.52;93.48;100002.47;6182759;23;20171;-84
2023/05/03 10:48:24;;;;;;;8.63;7.80;;;;;;;18.60;93.18;100002.00;6157878;23;20626;-83
2023/05/03 10:50:51;;;;;;;7.23;6.50;;;;;;;19.55;89.86;99998.81;6158022;23;20690;-83
2023/05/03 10:53:31;;;;;;;8.63;7.73;;;;;;;19.66;88.65;100000.47;6182274;23;20621;-83
2023/05/03 10:56:06;;;;;;;8.63;7.83;;;;;;;18.58;90.30;100004.94;6182005;23;20193;-83
2023/05/03 10:58:43;;;;;;;8.37;7.57;;;;;;;19.15;88.49;99996.81;6157809;23;20170;-83
2023/05/03 11:01:11;;;;;;;7.90;7.10;;;;;;;18.77;87.76;99991.75;6157896;23;20162;-83
2023/05/03 11:03:58;;;;;;;8.87;7.97;;;;;;;18.17;90.68;100005.75;6157712;23;20158;-84
2023/05/03 11:06:30;;;;;;;8.60;7.80;;;;;;;18.36;93.24;99996.94;6158192;23;20155;-83
2023/05/03 11:08:57;;;;;;;8.73;7.93;;;;;;;18.41;93.62;99996.97;6182089;23;20201;-84
2023/05/03 11:11:24;;;;;;;8.80;7.97;;;;;;;18.32;91.18;99995.00;6182394;23;20186;-83
2023/05/03 11:13:51;;;;;;;8.63;7.33;;;;;;;18.75;93.41;99989.31;6157591;23;20201;-83
2023/05/03 11:16:18;;;;;;;8.73;8.00;;;;;;;17.89;94.28;99979.78;6157534;23;20417;-84
2023/05/03 11:18:47;;;;;;;8.83;8.03;;;;;;;17.69;98.89;99991.25;6157962;23;20392;-84
2023/05/03 11:21:15;;;;;;;8.70;7.97;;;;;;;17.60;99.44;99995.50;6158149;23;20676;-84
2023/05/03 11:23:42;;;;;;;9.40;8.60;;;;;;;18.27;96.60;99993.06;6155598;23;20209;-84
2023/05/03 11:26:09;;;;;;;9.07;8.20;;;;;;;18.21;96.82;99985.97;6157608;23;20187;-84